Yuma, Arizona
Current Conditions -  °F | °C
As of 10:57 AM on Thursday 23 Oct 2014 (Local Time) from KNYL Reporting Station
Few Clouds Few Clouds  
Wind Chill: 89°   Ceiling: Unl
Heat Index: 89°   Visibility: 10mi
Dew Point: 47°   Wind: 8mph
Humidity: 23%   Direction: 20°NNE
Pressure: 29.97"   Gusts: NA
Location:  32.68°N, 114.62°W
Report Text: KNYL 231757Z 02007KT 10SM FEW300 32/08 A2997 RMK AO2 SLP146 T03170083 10322 20211 50007
Loading
Personal Weather Stations






























Interactive Weather Map
Tropical Storm Tracking
New forecast layout! Learn more

10-Day Weather Forecast

Advertisements
Track Severe Weather on mobile